sensor_id;sensor_type;location;lat;lon;timestamp;pressure;altitude;pressure_sealevel;temperature;humidity
55014;BME280;40916;51.632;5.552;2022-07-17T00:00:35;1023.3122557044356;;;12.742221065858708;0
55014;BME280;40916;51.632;5.552;2022-07-17T00:01:35;1023.2909006110312;;;12.722176588435321;0
55014;BME280;40916;51.632;5.552;2022-07-17T00:02:35;1023.3601959654005;;;12.715494314734276;0
55014;BME280;40916;51.632;5.552;2022-07-17T00:03:35;1023.3230655740914;;;12.68876131061997;0
55014;BME280;40916;51.632;5.552;2022-07-17T00:04:35;1023.3802859934198;;;12.675392461307027;0
55014;BME280;40916;51.632;5.552;2022-07-17T00:05:35;1023.339421862558;;;12.648650063393564;0
55014;BME280;40916;51.632;5.552;2022-07-17T00:06:36;1023.294839797039;;;12.621901393386295;0
55014;BME280;40916;51.632;5.552;2022-07-17T00:07:36;1023.2743893591278;;;12.608524703953169;0
55014;BME280;40916;51.632;5.552;2022-07-17T00:08:36;1023.3037060955156;;;12.581766611432478;0
55014;BME280;40916;51.632;5.552;2022-07-17T00:09:36;1023.2849417868421;;;12.555002227636137;0
55014;BME280;40916;51.632;5.552;2022-07-17T00:10:37;1023.33838573478;;;12.541617674105517;0
55014;BME280;40916;51.632;5.552;2022-07-17T00:11:36;1023.3296610874245;;;12.508149394459416;0
55014;BME280;40916;51.632;5.552;2022-07-17T00:12:36;1023.3061145049694;;;12.47467125158408;0
55014;BME280;40916;51.632;5.552;2022-07-17T00:13:36;1023.2687732903662;;;12.447881625613125;0
55014;BME280;40916;51.632;5.552;2022-07-17T00:14:36;1023.3137345723744;;;12.427785252578719;0
55014;BME280;40916;51.632;5.552;2022-07-17T00:15:36;1023.3042834311622;;;12.414385690854424;0
55014;BME280;40916;51.632;5.552;2022-07-17T00:16:36;1023.3566054314653;;;12.394283376289696;0
55014;BME280;40916;51.632;5.552;2022-07-17T00:17:37;1023.2452939175769;;;12.367474737409221;0
55014;BME280;40916;51.632;5.552;2022-07-17T00:18:37;1023.2305691776833;;;12.320544327326207;0
55014;BME280;40916;51.632;5.552;2022-07-17T00:19:37;1023.2738470382882;;;12.313838392295484;0
55014;BME280;40916;51.632;5.552;2022-07-17T00:20:37;1023.2453194110874;;;12.273594418799188;0
55014;BME280;40916;51.632;5.552;2022-07-17T00:21:37;1023.2236476105974;;;12.253467050133455;0
55014;BME280;40916;51.632;5.552;2022-07-17T00:22:37;1023.2256664489013;;;12.21991345104869;0
55014;BME280;40916;51.632;5.552;2022-07-17T00:23:37;1023.3021521757456;;;12.213201532431523;0
55014;BME280;40916;51.632;5.552;2022-07-17T00:24:37;1023.3453926753826;;;12.206489213927789;0
55014;BME280;40916;51.632;5.552;2022-07-17T00:25:37;1023.2845601819541;;;12.172921618807809;0
55014;BME280;40916;51.632;5.552;2022-07-17T00:26:38;1023.2480452068609;;;12.152776255224556;0
55014;BME280;40916;51.632;5.552;2022-07-17T00:27:38;1023.2236954348144;;;12.139344008069347;0
55014;BME280;40916;51.632;5.552;2022-07-17T00:28:38;1023.2167033546085;;;12.11919262771968;0
55014;BME280;40916;51.632;5.552;2022-07-17T00:29:38;1023.176463446159;;;12.099037632865684;0
55014;BME280;40916;51.632;5.552;2022-07-17T00:30:38;1023.1635262388023;;;12.065437933474797;0
55014;BME280;40916;51.632;5.552;2022-07-17T00:31:38;1023.1051220296421;;;12.025105006980983;0
55014;BME280;40916;51.632;5.552;2022-07-17T00:32:38;1023.1877860768028;;;12.011657472702584;0
55014;BME280;40916;51.632;5.552;2022-07-17T00:33:38;1023.1710512935115;;;11.978031571913537;0
55014;BME280;40916;51.632;5.552;2022-07-17T00:34:38;1023.1664948177681;;;11.951123576110117;0
55014;BME280;40916;51.632;5.552;2022-07-17T00:35:39;1023.253681797147;;;11.964578382945994;0
55014;BME280;40916;51.632;5.552;2022-07-17T00:36:39;1023.2638726523655;;;11.937667150407567;0
55014;BME280;40916;51.632;5.552;2022-07-17T00:37:39;1023.27887990384;;;11.917479474292868;0
55014;BME280;40916;51.632;5.552;2022-07-17T00:38:39;1023.2348148000218;;;11.897288150104256;0
55014;BME280;40916;51.632;5.552;2022-07-17T00:39:39;1023.1785046011403;;;11.870360703895592;0
55014;BME280;40916;51.632;5.552;2022-07-17T00:40:39;1023.2499903147419;;;11.856894543981976;0
55014;BME280;40916;51.632;5.552;2022-07-17T00:41:39;1023.2624160457525;;;11.843426758190308;0
55014;BME280;40916;51.632;5.552;2022-07-17T00:42:40;1023.1433214786556;;;11.816486304952278;0
55014;BME280;40916;51.632;5.552;2022-07-17T00:43:39;1023.2516756188563;;;11.80301363549357;0
55014;BME280;40916;51.632;5.552;2022-07-17T00:44:40;1023.1325520931991;;;11.776063405859688;0
55014;BME280;40916;51.632;5.552;2022-07-17T00:45:40;1023.2544459815936;;;11.755846450285343;0
55014;BME280;40916;51.632;5.552;2022-07-17T00:46:41;1023.2582435269442;;;11.735625819481498;0
55014;BME280;40916;51.632;5.552;2022-07-17T00:47:48;1023.2940287257802;;;11.708659255485756;0
55014;BME280;40916;51.632;5.552;2022-07-17T00:48:40;1023.3150258164071;;;11.681686143577291;0
55014;BME280;40916;51.632;5.552;2022-07-17T00:49:40;1023.2646421076732;;;11.668197129620047;0
55014;BME280;40916;51.632;5.552;2022-07-17T00:50:41;1023.237642443283;;;11.641214180620704;0
55014;BME280;40916;51.632;5.552;2022-07-17T00:51:40;1023.3458655295132;;;11.627720243544559;0
55014;BME280;40916;51.632;5.552;2022-07-17T00:52:40;1023.2770162656867;;;11.614224663393333;0
55014;BME280;40916;51.632;5.552;2022-07-17T00:53:40;1023.3397247631355;;;11.614224663393333;0
55014;BME280;40916;51.632;5.552;2022-07-17T00:54:41;1023.2930027317661;;;11.600727439147892;0
55014;BME280;40916;51.632;5.552;2022-07-17T00:55:41;1023.2536537642949;;;11.58722856978827;0
55014;BME280;40916;51.632;5.552;2022-07-17T00:56:41;1023.2868504203379;;;11.58722856978827;0
55014;BME280;40916;51.632;5.552;2022-07-17T00:57:41;1023.3286573864688;;;11.593978210171134;0
55014;BME280;40916;51.632;5.552;2022-07-17T00:58:41;1023.3200260934943;;;11.566977178926482;0
55014;BME280;40916;51.632;5.552;2022-07-17T00:59:41;1023.2695535758511;;;11.533216620778994;0
55014;BME280;40916;51.632;5.552;2022-07-17T01:00:41;1023.2436788955057;;;11.512955336234192;0
55014;BME280;40916;51.632;5.552;2022-07-17T01:01:41;1023.3235599569603;;;11.506200749007917;0
55014;BME280;40916;51.632;5.552;2022-07-17T01:02:44;1023.3554070691847;;;11.47917826812537;0
55014;BME280;40916;51.632;5.552;2022-07-17T01:03:42;1023.3109367963272;;;11.438632136738306;0
55014;BME280;40916;51.632;5.552;2022-07-17T01:04:42;1023.3008760795211;;;11.404832300331485;0
55014;BME280;40916;51.632;5.552;2022-07-17T01:05:42;1023.2181502019153;;;11.357495095751009;0
55014;BME280;40916;51.632;5.552;2022-07-17T01:06:42;1023.2019201382357;;;11.330436117503712;0
55014;BME280;40916;51.632;5.552;2022-07-17T01:07:42;1023.2841111488907;;;11.316904130360605;0
55014;BME280;40916;51.632;5.552;2022-07-17T01:08:42;1023.2372721220644;;;11.30337047648764;0
55014;BME280;40916;51.632;5.552;2022-07-17T01:09:42;1023.187814211864;;;11.27629816439632;0
55014;BME280;40916;51.632;5.552;2022-07-17T01:10:42;1023.2391673199589;;;11.255989547430055;0
55014;BME280;40916;51.632;5.552;2022-07-17T01:11:42;1023.2094152333979;;;11.235677169788861;0
55014;BME280;40916;51.632;5.552;2022-07-17T01:12:43;1023.1893818732276;;;11.208588143577916;0
55014;BME280;40916;51.632;5.552;2022-07-17T01:13:43;1023.1793558317606;;;11.195041118398855;0
55014;BME280;40916;51.632;5.552;2022-07-17T01:14:43;1023.130116707416;;;11.188266977333587;0
55014;BME280;40916;51.632;5.552;2022-07-17T01:15:43;1023.1676654351254;;;11.154389982016639;0
55014;BME280;40916;51.632;5.552;2022-07-17T01:16:43;1023.1046822971645;;;11.134058748118655;0
55014;BME280;40916;51.632;5.552;2022-07-17T01:17:43;1023.1954587333331;;;11.12728082991465;0
55014;BME280;40916;51.632;5.552;2022-07-17T01:18:43;1023.1347907511441;;;11.1001649524074;0
55014;BME280;40916;51.632;5.552;2022-07-17T01:19:43;1023.1481758699999;;;11.093384931200685;0
55014;BME280;40916;51.632;5.552;2022-07-17T01:20:44;1023.082435712783;;;11.059478507609256;0
55014;BME280;40916;51.632;5.552;2022-07-17T01:21:44;1023.0810732139712;;;11.05269595845736;0
55014;BME280;40916;51.632;5.552;2022-07-17T01:22:44;1023.0889713451925;;;11.018776883276171;0
55014;BME280;40916;51.632;5.552;2022-07-17T01:23:44;1023.1193786746476;;;11.005206297008382;0
55014;BME280;40916;51.632;5.552;2022-07-17T01:24:44;1023.0705748891764;;;10.964484388923534;0
55014;BME280;40916;51.632;5.552;2022-07-17T01:25:44;1023.0664114154198;;;10.94411771935264;0
55014;BME280;40916;51.632;5.552;2022-07-17T01:26:45;1023.1571027201206;;;10.937327981866428;0
55014;BME280;40916;51.632;5.552;2022-07-17T01:27:44;1023.1004597888262;;;10.930537820344263;0
55014;BME280;40916;51.632;5.552;2022-07-17T01:28:44;1023.146946168361;;;10.92374723465327;0
55014;BME280;40916;51.632;5.552;2022-07-17T01:29:44;1023.1943110124234;;;10.903372931237687;0
55014;BME280;40916;51.632;5.552;2022-07-17T01:30:45;1023.2334204275438;;;10.896580647541473;0
55014;BME280;40916;51.632;5.552;2022-07-17T01:31:45;1023.2121931723256;;;10.88299480551365;0
55014;BME280;40916;51.632;5.552;2022-07-17T01:32:45;1023.2241050829276;;;10.869407263083612;0
55014;BME280;40916;51.632;5.552;2022-07-17T01:33:45;1023.0952085904712;;;10.869407263083612;0
55014;BME280;40916;51.632;5.552;2022-07-17T01:34:45;1023.1320361448155;;;10.869407263083612;0
55014;BME280;40916;51.632;5.552;2022-07-17T01:35:45;1023.1541326831547;;;10.869407263083612;0
55014;BME280;40916;51.632;5.552;2022-07-17T01:36:45;1023.2153273601824;;;10.862612853884418;0
55014;BME280;40916;51.632;5.552;2022-07-17T01:37:45;1023.1691542995845;;;10.83543096074564;0
55014;BME280;40916;51.632;5.552;2022-07-17T01:38:45;1023.1325793999271;;;10.801444007530332;0
55014;BME280;40916;51.632;5.552;2022-07-17T01:39:45;1023.0804234625082;;;10.78104671622247;0
55014;BME280;40916;51.632;5.552;2022-07-17T01:40:46;1023.1291039835749;;;10.767446386709295;0
55014;BME280;40916;51.632;5.552;2022-07-17T01:41:46;1023.092450654493;;;10.73343808151909;0
55014;BME280;40916;51.632;5.552;2022-07-17T01:42:47;1023.0343363279319;;;10.71983176405794;0
55014;BME280;40916;51.632;5.552;2022-07-17T01:43:46;1023.0593156773704;;;10.73343808151909;0
55014;BME280;40916;51.632;5.552;2022-07-17T01:44:46;1023.0122470078785;;;10.71983176405794;0
55014;BME280;40916;51.632;5.552;2022-07-17T01:45:46;1023.0725979505876;;;10.726635136879093;0
55014;BME280;40916;51.632;5.552;2022-07-17T01:46:46;1023.0343363279319;;;10.71983176405794;0
55014;BME280;40916;51.632;5.552;2022-07-17T01:47:46;1023.0122470078785;;;10.71983176405794;0
55014;BME280;40916;51.632;5.552;2022-07-17T01:48:46;1023.0365705953192;;;10.713027962921018;0
55014;BME280;40916;51.632;5.552;2022-07-17T01:49:47;1023.0314401659932;;;10.706223733333658;0
55014;BME280;40916;51.632;5.552;2022-07-17T01:50:47;1023.0410337073544;;;10.699419075161131;0
55014;BME280;40916;51.632;5.552;2022-07-17T01:51:47;1023.0557592694199;;;10.699419075161131;0
55014;BME280;40916;51.632;5.552;2022-07-17T01:52:47;1023.0661209479632;;;10.679002527784434;0
55014;BME280;40916;51.632;5.552;2022-07-17T01:53:47;1023.1816970765851;;;10.685808472521387;0
55014;BME280;40916;51.632;5.552;2022-07-17T01:54:47;1023.054379631688;;;10.658582118285644;0
55014;BME280;40916;51.632;5.552;2022-07-17T01:55:47;1023.0772185646791;;;10.644966364529033;0
55014;BME280;40916;51.632;5.552;2022-07-17T01:56:47;1023.1199225668438;;;10.638157843017968;0
55014;BME280;40916;51.632;5.552;2022-07-17T01:57:47;1023.0330606689381;;;10.610919456264433;0
55014;BME280;40916;51.632;5.552;2022-07-17T01:58:47;1023.1545231932554;;;10.610919456264433;0
55014;BME280;40916;51.632;5.552;2022-07-17T01:59:48;1023.1331654426551;;;10.59729768056582;0
55014;BME280;40916;51.632;5.552;2022-07-17T02:00:48;1023.1876493587984;;;10.610919456264433;0
55014;BME280;40916;51.632;5.552;2022-07-17T02:01:48;1023.1736517709166;;;10.59729768056582;0
55014;BME280;40916;51.632;5.552;2022-07-17T02:02:48;1023.1066386950496;;;10.576861786064775;0
55014;BME280;40916;51.632;5.552;2022-07-17T02:03:48;1023.2185354941688;;;10.583674181873146;0
55014;BME280;40916;51.632;5.552;2022-07-17T02:04:48;1023.1235559598298;;;10.570048959100657;0
55014;BME280;40916;51.632;5.552;2022-07-17T02:05:48;1023.0911392963884;;;10.556422011161679;0
55014;BME280;40916;51.632;5.552;2022-07-17T02:06:48;1023.1426627468975;;;10.556422011161679;0
55014;BME280;40916;51.632;5.552;2022-07-17T02:07:48;1023.1853348302323;;;10.54960788991492;0
55014;BME280;40916;51.632;5.552;2022-07-17T02:08:49;1023.2059230675865;;;10.542793336968629;0
55014;BME280;40916;51.632;5.552;2022-07-17T02:09:49;1023.188211960571;;;10.529162935433003;0
55014;BME280;40916;51.632;5.552;2022-07-17T02:10:49;1023.2573106651885;;;10.508714091978899;0
55014;BME280;40916;51.632;5.552;2022-07-17T02:11:49;1023.1731565853488;;;10.460984979454707;0
55014;BME280;40916;51.632;5.552;2022-07-17T02:12:49;1023.103246423565;;;10.460984979454707;0
55014;BME280;40916;51.632;5.552;2022-07-17T02:13:49;1023.1848424563904;;;10.447344190953846;0
55014;BME280;40916;51.632;5.552;2022-07-17T02:14:49;1023.1309287417497;;;10.420057407893026;0
55014;BME280;40916;51.632;5.552;2022-07-17T02:15:49;1023.0812873913465;;;10.379114201702475;0
55014;BME280;40916;51.632;5.552;2022-07-17T02:16:49;1023.1428947626439;;;10.358636726354682;0
55014;BME280;40916;51.632;5.552;2022-07-17T02:17:49;1023.1198753136424;;;10.338155331220268;0
55014;BME280;40916;51.632;5.552;2022-07-17T02:18:50;1023.1247178650086;;;10.310840700498936;0
55014;BME280;40916;51.632;5.552;2022-07-17T02:19:50;1023.1121306537017;;;10.304010951921267;0
55014;BME280;40916;51.632;5.552;2022-07-17T02:20:50;1023.2319561794287;;;10.297180766708529;0
55014;BME280;40916;51.632;5.552;2022-07-17T02:21:50;1023.1620709247203;;;10.297180766708529;0
55014;BME280;40916;51.632;5.552;2022-07-17T02:22:50;1023.2081592801626;;;10.338155331220268;0
55014;BME280;40916;51.632;5.552;2022-07-17T02:23:50;1023.2048311644586;;;10.372288811888982;0
55014;BME280;40916;51.632;5.552;2022-07-17T02:24:50;1023.1879733427734;;;10.379114201702475;0
55014;BME280;40916;51.632;5.552;2022-07-17T02:25:50;1023.2241507148656;;;10.392763676109805;0
55014;BME280;40916;51.632;5.552;2022-07-17T02:26:50;1023.2278296531305;;;10.392763676109805;0
55014;BME280;40916;51.632;5.552;2022-07-17T02:27:51;1023.1815341904121;;;10.399587760978527;0
55014;BME280;40916;51.632;5.552;2022-07-17T02:28:51;1023.1867422447945;;;10.406411411140446;0
55014;BME280;40916;51.632;5.552;2022-07-17T02:29:51;1023.1800034649834;;;10.392763676109805;0
55014;BME280;40916;51.632;5.552;2022-07-17T02:30:51;1023.2462243462427;;;10.392763676109805;0
55014;BME280;40916;51.632;5.552;2022-07-17T02:31:51;1023.1726455916717;;;10.392763676109805;0
55014;BME280;40916;51.632;5.552;2022-07-17T02:32:51;1023.1468930388348;;;10.392763676109805;0
55014;BME280;40916;51.632;5.552;2022-07-17T02:33:51;1023.1189913518485;;;10.399587760978527;0
55014;BME280;40916;51.632;5.552;2022-07-17T02:34:51;1023.1330830874099;;;10.413234626732866;0
55014;BME280;40916;51.632;5.552;2022-07-17T02:35:52;1023.1741762076169;;;10.399587760978527;0
55014;BME280;40916;51.632;5.552;2022-07-17T02:36:52;1023.1836824018181;;;10.392763676109805;0
55014;BME280;40916;51.632;5.552;2022-07-17T02:37:52;1023.2483698018646;;;10.385939156396926;0
55014;BME280;40916;51.632;5.552;2022-07-17T02:38:52;1023.2017533709255;;;10.358636726354682;0
55014;BME280;40916;51.632;5.552;2022-07-17T02:39:52;1023.2737841025923;;;10.351810030358646;0
55014;BME280;40916;51.632;5.552;2022-07-17T02:40:52;1023.2166748629738;;;10.310840700498936;0
55014;BME280;40916;51.632;5.552;2022-07-17T02:41:52;1023.2245998348026;;;10.297180766708529;0
55014;BME280;40916;51.632;5.552;2022-07-17T02:42:52;1023.1138138785465;;;10.26302328628082;0
55014;BME280;40916;51.632;5.552;2022-07-17T02:43:52;1023.1490276736768;;;10.256190478354064;0
55014;BME280;40916;51.632;5.552;2022-07-17T02:44:53;1023.2220824832408;;;10.222019871895604;0
55014;BME280;40916;51.632;5.552;2022-07-17T02:45:53;1023.1275088192428;;;10.194675498214874;0
55014;BME280;40916;51.632;5.552;2022-07-17T02:46:53;1023.1469554793084;;;10.215184436268114;0
55014;BME280;40916;51.632;5.552;2022-07-17T02:47:53;1023.1779516542765;;;10.222019871895604;0
55014;BME280;40916;51.632;5.552;2022-07-17T02:48:53;1023.067624656896;;;10.222019871895604;0
55014;BME280;40916;51.632;5.552;2022-07-17T02:49:53;1023.1085714270484;;;10.256190478354064;0
55014;BME280;40916;51.632;5.552;2022-07-17T02:50:53;1023.0329002201597;;;10.26302328628082;0
55014;BME280;40916;51.632;5.552;2022-07-17T02:51:53;1023.0538490385853;;;10.290350144722552;0
55014;BME280;40916;51.632;5.552;2022-07-17T02:52:53;1023.0621871489258;;;10.310840700498936;0
55014;BME280;40916;51.632;5.552;2022-07-17T02:53:54;1023.0790266489352;;;10.304010951921267;0
55014;BME280;40916;51.632;5.552;2022-07-17T02:54:54;1023.1094258406652;;;10.324498888301452;0
55014;BME280;40916;51.632;5.552;2022-07-17T02:55:54;1023.0879350866722;;;10.310840700498936;0
55014;BME280;40916;51.632;5.552;2022-07-17T02:56:54;1023.1179328912741;;;10.297180766708529;0
55014;BME280;40916;51.632;5.552;2022-07-17T02:57:54;1023.1684299994477;;;10.276687589877909;0
55014;BME280;40916;51.632;5.552;2022-07-17T02:58:54;1023.1159271071815;;;10.256190478354064;0
55014;BME280;40916;51.632;5.552;2022-07-17T02:59:54;1023.1369664835461;;;10.23568942839853;0
55014;BME280;40916;51.632;5.552;2022-07-17T03:00:54;1023.0828613542218;;;10.20834856220479;0
55014;BME280;40916;51.632;5.552;2022-07-17T03:01:54;1023.0928308598238;;;10.187838308010246;0
55014;BME280;40916;51.632;5.552;2022-07-17T03:02:54;1023.0628336171657;;;10.153645769324399;0
55014;BME280;40916;51.632;5.552;2022-07-17T03:03:55;1023.0465338765265;;;10.146805943079709;0
55014;BME280;40916;51.632;5.552;2022-07-17T03:04:55;1023.1453193828777;;;10.160485155880774;0
55014;BME280;40916;51.632;5.552;2022-07-17T03:05:55;1023.1326969567147;;;10.153645769324399;0
55014;BME280;40916;51.632;5.552;2022-07-17T03:06:55;1023.1426203674704;;;10.133124970967486;0
55014;BME280;40916;51.632;5.552;2022-07-17T03:07:55;1023.146297222421;;;10.133124970967486;0
55014;BME280;40916;51.632;5.552;2022-07-17T03:08:55;1023.194573113303;;;10.119442238427727;0
55014;BME280;40916;51.632;5.552;2022-07-17T03:09:55;1023.198719358992;;;10.105757744343101;0
55014;BME280;40916;51.632;5.552;2022-07-17T03:10:55;1023.2122778355416;;;10.085227697873055;0
55014;BME280;40916;51.632;5.552;2022-07-17T03:11:56;1023.2805180978548;;;10.078383467065208;0
55014;BME280;40916;51.632;5.552;2022-07-17T03:12:56;1023.2736110692986;;;10.064693681632555;0
55014;BME280;40916;51.632;5.552;2022-07-17T03:13:56;1023.3328689439568;;;10.051002130176258;0
55014;BME280;40916;51.632;5.552;2022-07-17T03:14:56;1023.2891855440948;;;10.037308811574253;0
55014;BME280;40916;51.632;5.552;2022-07-17T03:15:56;1023.1985415146623;;;9.996218241659037;0
55014;BME280;40916;51.632;5.552;2022-07-17T03:16:56;1023.209568794427;;;9.996218241659037;0
55014;BME280;40916;51.632;5.552;2022-07-17T03:17:56;1023.2267133428174;;;9.975666979303817;0
55014;BME280;40916;51.632;5.552;2022-07-17T03:18:56;1023.2875574002232;;;9.968815672039632;0
55014;BME280;40916;51.632;5.552;2022-07-17T03:19:56;1023.2532206378806;;;9.948259088835687;0
55014;BME280;40916;51.632;5.552;2022-07-17T03:20:57;1023.3013773864494;;;9.934552480778859;0
55014;BME280;40916;51.632;5.552;2022-07-17T03:21:57;1023.20784518104;;;9.927698510550456;0
55014;BME280;40916;51.632;5.552;2022-07-17T03:22:57;1023.2964164728108;;;9.913989236986868;0
55014;BME280;40916;51.632;5.552;2022-07-17T03:23:57;1023.2730651389827;;;9.89342199175228;0
55014;BME280;40916;51.632;5.552;2022-07-17T03:24:57;1023.2496997204908;;;9.872850741251831;0
55014;BME280;40916;51.632;5.552;2022-07-17T03:25:57;1023.2720864648217;;;9.859134347213587;0
55014;BME280;40916;51.632;5.552;2022-07-17T03:26:57;1023.2650682384278;;;9.845416170220414;0
55014;BME280;40916;51.632;5.552;2022-07-17T03:27:57;1023.173531054515;;;9.831696209135885;0
55014;BME280;40916;51.632;5.552;2022-07-17T03:28:57;1023.2657087587557;;;9.81797446282259;0
55014;BME280;40916;51.632;5.552;2022-07-17T03:29:58;1023.3502184705394;;;9.81797446282259;0
55014;BME280;40916;51.632;5.552;2022-07-17T03:30:58;1023.3134751098625;;;9.81797446282259;0
55014;BME280;40916;51.632;5.552;2022-07-17T03:31:58;1023.3177579553542;;;9.790525609955282;0
55014;BME280;40916;51.632;5.552;2022-07-17T03:32:58;1023.4002774126177;;;9.797388493558277;0
55014;BME280;40916;51.632;5.552;2022-07-17T03:33:58;1023.3253993635844;;;9.776798501121625;0
55014;BME280;40916;51.632;5.552;2022-07-17T03:34:58;1023.27227095829;;;9.769934275605653;0
55014;BME280;40916;51.632;5.552;2022-07-17T03:35:58;1023.248533505769;;;9.763069602499932;0
55014;BME280;40916;51.632;5.552;2022-07-17T03:36:58;1023.2739632911015;;;9.776798501121625;0
55014;BME280;40916;51.632;5.552;2022-07-17T03:37:58;1023.3073158177275;;;9.763069602499932;0
55014;BME280;40916;51.632;5.552;2022-07-17T03:38:59;1023.2431641517943;;;9.756204481661651;0
55014;BME280;40916;51.632;5.552;2022-07-17T03:39:59;1023.1278570828422;;;9.73560643132246;0
55014;BME280;40916;51.632;5.552;2022-07-17T03:40:59;1023.1866358124732;;;9.73560643132246;0
55014;BME280;40916;51.632;5.552;2022-07-17T03:41:59;1023.1719411272132;;;9.73560643132246;0
55014;BME280;40916;51.632;5.552;2022-07-17T03:42:59;1023.17561479835;;;9.73560643132246;0
55014;BME280;40916;51.632;5.552;2022-07-17T03:43:59;1023.1645937852963;;;9.73560643132246;0
55014;BME280;40916;51.632;5.552;2022-07-17T03:44:59;1023.2290174982148;;;9.728739518124627;0
55014;BME280;40916;51.632;5.552;2022-07-17T03:45:59;1023.1996285586763;;;9.728739518124627;0
55014;BME280;40916;51.632;5.552;2022-07-17T03:47:00;1023.1888723864616;;;9.71500434624322;0
55014;BME280;40916;51.632;5.552;2022-07-17T03:48:00;1023.2021124884643;;;9.694398222558181;0
55014;BME280;40916;51.632;5.552;2022-07-17T03:49:00;1023.183992469736;;;9.680658561187016;0
55014;BME280;40916;51.632;5.552;2022-07-17T03:50:00;1023.1582798533595;;;9.680658561187016;0
55014;BME280;40916;51.632;5.552;2022-07-17T03:51:00;1023.1401544451928;;;9.666917102011638;0
55014;BME280;40916;51.632;5.552;2022-07-17T03:52:00;1023.1475006851119;;;9.666917102011638;0
55014;BME280;40916;51.632;5.552;2022-07-17T03:53:00;1023.1183498606936;;;9.653173843882975;0
55014;BME280;40916;51.632;5.552;2022-07-17T03:54:00;1023.1203006762844;;;9.646301539851809;0
55014;BME280;40916;51.632;5.552;2022-07-17T03:55:00;1023.0691040368677;;;9.632555581136565;0
55014;BME280;40916;51.632;5.552;2022-07-17T03:56:00;1023.0963118085053;;;9.653173843882975;0
55014;BME280;40916;51.632;5.552;2022-07-17T03:57:00;1023.1477339369304;;;9.653173843882975;0
55014;BME280;40916;51.632;5.552;2022-07-17T03:58:01;1023.1550799571777;;;9.653173843882975;0
55014;BME280;40916;51.632;5.552;2022-07-17T03:59:01;1023.213848136263;;;9.653173843882975;0
55014;BME280;40916;51.632;5.552;2022-07-17T04:00:01;1023.1954830770318;;;9.653173843882975;0
55014;BME280;40916;51.632;5.552;2022-07-17T04:01:01;1023.2337009802992;;;9.673788056396646;0
55014;BME280;40916;51.632;5.552;2022-07-17T04:02:01;1023.1986853959936;;;9.680658561187016;0
55014;BME280;40916;51.632;5.552;2022-07-17T04:03:01;1023.2863485124318;;;9.708136087273228;0
55014;BME280;40916;51.632;5.552;2022-07-17T04:04:01;1023.2238997991192;;;9.708136087273228;0
55014;BME280;40916;51.632;5.552;2022-07-17T04:05:02;1023.3115407139564;;;9.73560643132246;0
55014;BME280;40916;51.632;5.552;2022-07-17T04:06:02;1023.2564355934257;;;9.73560643132246;0
55014;BME280;40916;51.632;5.552;2022-07-17T04:07:02;1023.2728315182937;;;9.74247289621588;0
55014;BME280;40916;51.632;5.552;2022-07-17T04:08:02;1023.3364213821476;;;9.776798501121625;0
55014;BME280;40916;51.632;5.552;2022-07-17T04:09:03;1023.3765438221727;;;9.790525609955282;0
55014;BME280;40916;51.632;5.552;2022-07-17T04:10:02;1023.3912402936322;;;9.790525609955282;0
55014;BME280;40916;51.632;5.552;2022-07-17T04:11:02;1023.4573744387367;;;9.790525609955282;0
55014;BME280;40916;51.632;5.552;2022-07-17T04:12:02;1023.4259966291315;;;9.797388493558277;0
55014;BME280;40916;51.632;5.552;2022-07-17T04:13:02;1023.5673049388204;;;9.804250930142167;0
55014;BME280;40916;51.632;5.552;2022-07-17T04:14:03;1023.4864718251085;;;9.804250930142167;0
55014;BME280;40916;51.632;5.552;2022-07-17T04:15:03;1023.5302611097071;;;9.81797446282259;0